Time;durP1;ratioP1;P1;durP2;ratioP2;P2;SDS_P1;SDS_P2;PMS_P1;PMS_P2;Temp;Humidity;BMP_temperature;BMP_pressure;BME280_temperature;BME280_humidity;BME280_pressure;Samples;Min_cycle;Max_cycle;Signal;HPM_P1;HPM_P2
2022/07/30 00:01:20;;;;;;;;;5.00;4.00;;;;;25.83;36.19;101597.03;4963298;28;45329;-59
2022/07/30 00:03:45;;;;;;;;;9.00;4.75;;;;;25.81;36.34;101600.91;4963404;28;45483;-59
2022/07/30 00:06:11;;;;;;;;;5.75;5.75;;;;;25.75;36.26;101602.44;4963308;28;45461;-59
2022/07/30 00:08:36;;;;;;;;;8.50;5.50;;;;;25.71;36.52;101602.91;4963521;28;45393;-59
2022/07/30 00:11:02;;;;;;;;;5.50;4.75;;;;;25.68;36.87;101603.25;4963280;28;45891;-59
2022/07/30 00:13:28;;;;;;;;;6.25;5.00;;;;;25.64;36.57;101599.19;4963175;28;45350;-59
2022/07/30 00:15:53;;;;;;;;;5.00;5.00;;;;;25.61;36.81;101595.84;4963247;28;45517;-59
2022/07/30 00:18:19;;;;;;;;;7.50;4.75;;;;;25.58;36.37;101596.16;4962963;28;45488;-59
2022/07/30 00:20:44;;;;;;;;;5.25;3.75;;;;;25.54;36.70;101597.50;4962947;28;46088;-59
2022/07/30 00:23:10;;;;;;;;;4.25;3.75;;;;;25.51;36.48;101597.81;4963140;28;46507;-59
2022/07/30 00:25:35;;;;;;;;;4.75;4.75;;;;;25.50;36.82;101596.16;4963194;28;45375;-59
2022/07/30 00:28:01;;;;;;;;;5.00;4.75;;;;;25.49;36.44;101597.16;4963536;28;45214;-58
2022/07/30 00:30:26;;;;;;;;;6.75;4.50;;;;;25.47;36.75;101596.50;4963251;28;46085;-58
2022/07/30 00:32:52;;;;;;;;;6.75;4.50;;;;;25.46;36.97;101604.75;4962869;28;45206;-58
2022/07/30 00:35:17;;;;;;;;;6.00;6.00;;;;;25.39;37.22;101604.56;4962255;28;45446;-59
2022/07/30 00:37:43;;;;;;;;;5.00;4.25;;;;;25.37;37.08;101601.22;4954610;28;45175;-59
2022/07/30 00:40:09;;;;;;;;;6.00;6.00;;;;;25.33;37.20;101597.13;4953728;28;45223;-59
2022/07/30 00:42:41;;;;;;;;;5.25;5.00;;;;;25.28;37.31;101594.97;4962737;28;45441;-59
2022/07/30 00:45:08;;;;;;;;;5.75;5.75;;;;;25.25;37.32;101586.34;4962862;28;45320;-59
2022/07/30 00:47:33;;;;;;;;;7.00;5.50;;;;;25.20;37.13;101588.69;4962615;28;45246;-58
2022/07/30 00:50:02;;;;;;;;;6.00;5.50;;;;;25.17;37.20;101589.03;4962596;28;45693;-59
2022/07/30 00:52:28;;;;;;;;;4.25;4.00;;;;;25.15;37.46;101586.50;4962601;28;45325;-59
2022/07/30 00:54:53;;;;;;;;;6.50;5.50;;;;;25.12;37.73;101577.88;4962739;28;45458;-59
2022/07/30 00:57:19;;;;;;;;;5.00;5.00;;;;;25.08;37.42;101582.78;4962761;28;45326;-60
2022/07/30 00:59:44;;;;;;;;;7.75;5.75;;;;;25.07;37.90;101585.66;4962586;28;45327;-59
2022/07/30 01:02:11;;;;;;;;;7.50;4.75;;;;;25.01;38.19;101581.72;4962299;28;45242;-59
2022/07/30 01:04:36;;;;;;;;;7.25;4.75;;;;;24.98;37.95;101582.06;4962484;28;45526;-59
2022/07/30 01:07:02;;;;;;;;;7.25;5.00;;;;;24.94;38.43;101589.59;4962575;28;45547;-60
2022/07/30 01:09:27;;;;;;;;;3.00;3.00;;;;;24.92;38.34;101588.94;4962445;28;45999;-59
2022/07/30 01:11:53;;;;;;;;;5.75;3.75;;;;;24.89;38.41;101580.34;4962448;28;45210;-59
2022/07/30 01:14:19;;;;;;;;;6.75;6.00;;;;;24.88;38.10;101584.03;4962474;28;45327;-59
2022/07/30 01:16:44;;;;;;;;;7.75;5.25;;;;;24.84;38.34;101580.81;4962221;28;45411;-59
2022/07/30 01:22:18;;;;;;;;;6.25;5.25;;;;;24.82;38.40;101582.00;4962477;28;45380;-59
2022/07/30 01:24:50;;;;;;;;;4.00;4.00;;;;;24.82;38.42;101576.63;4962246;28;45306;-59
2022/07/30 01:27:18;;;;;;;;;5.00;3.25;;;;;24.80;38.79;101574.06;4962425;28;45386;-59
2022/07/30 01:29:45;;;;;;;;;6.00;4.00;;;;;24.81;38.82;101569.53;4962008;28;45329;-59
2022/07/30 01:32:13;;;;;;;;;4.25;3.25;;;;;24.77;38.66;101575.25;4960591;28;45286;-59
2022/07/30 01:34:41;;;;;;;;;7.75;4.00;;;;;24.77;38.51;101571.69;4961802;28;45226;-59
2022/07/30 01:37:09;;;;;;;;;4.50;4.50;;;;;24.77;38.61;101574.41;4958595;28;45333;-59
2022/07/30 01:39:37;;;;;;;;;6.50;4.25;;;;;24.75;38.78;101576.41;4948086;28;46049;-59
2022/07/30 01:42:06;;;;;;;;;5.00;4.25;;;;;24.74;39.16;101572.88;4961980;28;45332;-59
2022/07/30 01:44:32;;;;;;;;;4.75;4.00;;;;;24.74;38.85;101580.97;4961910;28;45391;-58
2022/07/30 01:47:00;;;;;;;;;6.00;6.00;;;;;24.76;39.33;101578.09;4961213;28;45586;-58
2022/07/30 01:49:28;;;;;;;;;4.75;4.75;;;;;24.74;39.41;101590.91;4961610;28;45358;-58
2022/07/30 01:51:54;;;;;;;;;6.25;4.75;;;;;24.72;39.10;101585.66;4961725;28;45294;-58
2022/07/30 01:54:23;;;;;;;;;6.50;5.25;;;;;24.71;39.39;101583.13;4962215;28;45626;-59
2022/07/30 01:56:50;;;;;;;;;5.50;5.50;;;;;24.68;38.76;101583.47;4962017;28;45326;-59
2022/07/30 01:59:19;;;;;;;;;5.00;5.00;;;;;24.63;39.25;101580.41;4961723;28;45283;-59
2022/07/30 02:01:44;;;;;;;;;6.00;6.00;;;;;24.56;38.92;101574.81;4961544;28;45236;-59
2022/07/30 02:04:10;;;;;;;;;6.75;4.50;;;;;24.55;39.32;101574.97;4961720;28;45377;-58
2022/07/30 02:06:43;;;;;;;;;5.25;5.25;;;;;24.55;39.54;101580.38;4961805;28;45315;-58
2022/07/30 02:09:10;;;;;;;;;6.50;5.00;;;;;24.54;39.13;101576.84;4961645;28;46354;-58
2022/07/30 02:14:49;;;;;;;;;5.25;5.25;;;;;24.49;39.34;101577.34;4961769;28;45354;-59
2022/07/30 02:17:21;;;;;;;;;6.00;4.50;;;;;24.47;39.85;101573.94;4961494;28;45601;-59
2022/07/30 02:19:53;;;;;;;;;7.50;5.75;;;;;24.44;39.97;101579.66;4961129;28;45462;-58
2022/07/30 02:22:21;;;;;;;;;7.50;5.00;;;;;24.42;39.44;101580.81;4961401;28;45347;-60
2022/07/30 02:24:50;;;;;;;;;4.50;3.00;;;;;24.40;40.08;101577.44;4961319;28;45296;-58
2022/07/30 02:27:20;;;;;;;;;7.50;5.50;;;;;24.38;39.96;101577.59;4960262;28;45342;-59
2022/07/30 02:29:48;;;;;;;;;8.00;6.75;;;;;24.35;40.33;101571.69;4961144;28;45335;-59
2022/07/30 02:32:18;;;;;;;;;7.00;5.25;;;;;24.30;40.24;101573.97;4961310;28;45324;-59
2022/07/30 02:34:47;;;;;;;;;7.00;5.75;;;;;24.29;39.86;101572.31;4961079;28;45416;-59
2022/07/30 02:37:14;;;;;;;;;4.25;4.25;;;;;24.29;40.08;101569.59;4957121;28;45493;-58
2022/07/30 02:39:42;;;;;;;;;7.50;5.00;;;;;24.25;40.27;101566.38;4947882;28;46132;-58
2022/07/30 02:42:09;;;;;;;;;5.00;5.00;;;;;24.19;40.10;101567.88;4961135;28;45337;-58
2022/07/30 02:44:37;;;;;;;;;6.00;6.00;;;;;24.19;40.03;101564.34;4961347;28;45251;-58
2022/07/30 02:47:04;;;;;;;;;4.25;4.00;;;;;24.18;40.33;101563.50;4961194;28;45199;-58
2022/07/30 02:49:34;;;;;;;;;6.25;6.25;;;;;24.15;40.51;101561.09;4960987;28;46041;-58
2022/07/30 02:52:02;;;;;;;;;5.50;5.50;;;;;24.16;40.07;101560.09;4961139;28;45266;-58
2022/07/30 02:54:29;;;;;;;;;4.50;4.50;;;;;24.16;40.22;101560.09;4961201;28;45426;-58
2022/07/30 02:56:56;;;;;;;;;6.50;5.00;;;;;24.15;40.10;101568.34;4961061;28;45366;-58
2022/07/30 02:59:23;;;;;;;;;5.25;4.25;;;;;24.13;40.76;101564.97;4962352;28;46815;-58
2022/07/30 03:01:50;;;;;;;;;7.00;6.00;;;;;24.11;40.29;101567.00;4964031;28;45394;-58
2022/07/30 03:04:20;;;;;;;;;7.25;4.25;;;;;24.09;40.13;101569.81;4964105;28;45426;-58
2022/07/30 03:06:48;;;;;;;;;5.75;3.75;;;;;24.06;40.56;101566.59;4964310;28;45269;-58
2022/07/30 03:09:16;;;;;;;;;5.00;4.25;;;;;24.04;40.87;101569.47;4964144;28;45478;-59
2022/07/30 03:11:43;;;;;;;;;7.00;4.50;;;;;24.02;40.78;101570.63;4964242;28;45224;-58
2022/07/30 03:14:10;;;;;;;;;5.00;5.00;;;;;24.00;40.28;101569.94;4964232;28;45218;-58
2022/07/30 03:16:37;;;;;;;;;7.25;5.50;;;;;23.97;40.56;101568.41;4964121;28;45390;-58
2022/07/30 03:19:08;;;;;;;;;7.00;5.50;;;;;23.92;40.66;101563.50;4963546;28;45511;-58
2022/07/30 03:21:35;;;;;;;;;5.00;5.00;;;;;23.91;40.72;101561.81;4963963;28;45175;-58
2022/07/30 03:24:02;;;;;;;;;3.75;3.00;;;;;23.90;40.83;101564.66;4964204;28;45388;-58
2022/07/30 03:26:29;;;;;;;;;5.50;5.00;;;;;23.89;40.48;101563.81;4963949;28;45449;-58
2022/07/30 03:28:56;;;;;;;;;5.75;4.75;;;;;23.85;40.75;101567.81;4963774;28;46804;-58
2022/07/30 03:31:22;;;;;;;;;5.50;4.50;;;;;23.82;40.95;101567.28;4963707;28;45235;-58
2022/07/30 03:33:49;;;;;;;;;5.00;5.00;;;;;23.79;40.55;101563.06;4963846;28;45247;-58
2022/07/30 03:36:16;;;;;;;;;4.75;4.75;;;;;23.79;40.88;101556.84;4963738;28;45568;-58
2022/07/30 03:38:43;;;;;;;;;12.25;10.75;;;;;23.77;40.68;101567.75;4947274;28;46242;-58
2022/07/30 03:41:10;;;;;;;;;6.00;5.00;;;;;23.78;41.01;101568.59;4961112;28;45383;-58
2022/07/30 03:43:37;;;;;;;;;6.25;5.75;;;;;23.75;40.65;101569.75;4963941;28;45305;-58
2022/07/30 03:46:06;;;;;;;;;6.25;5.25;;;;;23.74;40.94;101564.53;4963702;28;45547;-58
2022/07/30 03:48:33;;;;;;;;;6.25;5.00;;;;;23.71;40.92;101571.09;4963608;28;46375;-60
2022/07/30 03:51:02;;;;;;;;;4.75;4.75;;;;;23.63;41.10;101574.56;4963175;28;45271;-60
2022/07/30 03:53:28;;;;;;;;;4.00;4.00;;;;;23.58;41.16;101570.59;4963688;28;45429;-60
2022/07/30 03:55:55;;;;;;;;;6.00;4.25;;;;;23.59;40.79;101580.34;4963629;28;45227;-60
2022/07/30 03:58:20;;;;;;;;;4.00;4.00;;;;;23.58;41.29;101579.50;4963262;28;45345;-60
2022/07/30 04:00:48;;;;;;;;;4.75;4.75;;;;;23.56;41.33;101569.91;4963478;28;45318;-58
2022/07/30 04:03:23;;;;;;;;;6.00;6.00;;;;;23.57;41.30;101580.50;4963592;28;45376;-57
2022/07/30 04:05:48;;;;;;;;;5.75;4.00;;;;;23.55;41.15;101577.16;4962023;28;45238;-57
2022/07/30 04:08:13;;;;;;;;;4.75;4.75;;;;;23.54;41.25;101571.91;4978111;28;45689;-57
2022/07/30 04:10:39;;;;;;;;;5.00;5.00;;;;;23.53;41.34;101568.34;4961221;28;45433;-57
2022/07/30 04:13:04;;;;;;;;;5.75;5.00;;;;;23.52;41.28;101574.75;4963353;28;45397;-57
2022/07/30 04:15:36;;;;;;;;;6.50;6.00;;;;;23.49;41.23;101569.69;4963498;28;45198;-57
2022/07/30 04:18:04;;;;;;;;;6.00;6.00;;;;;23.46;41.12;101578.06;4962556;28;45459;-58
2022/07/30 04:20:40;;;;;;;;;6.25;4.25;;;;;23.45;41.23;101583.59;4962988;28;45263;-59
2022/07/30 04:23:07;;;;;;;;;7.50;5.00;;;;;23.43;41.77;101577.53;4961901;28;45425;-59
2022/07/30 04:25:33;;;;;;;;;6.25;6.25;;;;;23.42;41.21;101589.28;4963226;28;45315;-59
2022/07/30 04:27:59;;;;;;;;;5.25;4.75;;;;;23.40;41.26;101594.81;4962844;28;45260;-59
2022/07/30 04:30:24;;;;;;;;;6.75;6.00;;;;;23.38;41.44;101588.72;4963015;28;45191;-59
2022/07/30 04:32:50;;;;;;;;;6.50;5.00;;;;;23.36;40.90;101591.56;4963016;28;45389;-59
2022/07/30 04:35:15;;;;;;;;;5.25;5.25;;;;;23.35;41.46;101591.72;4962975;28;45542;-59
2022/07/30 04:37:41;;;;;;;;;5.50;5.00;;;;;23.33;41.84;101591.91;4954633;28;45926;-59
2022/07/30 04:40:07;;;;;;;;;5.00;5.00;;;;;23.34;41.89;101593.59;4953590;28;45294;-59
2022/07/30 04:42:32;;;;;;;;;5.00;4.50;;;;;23.34;41.98;101590.06;4962898;28;45434;-59
2022/07/30 04:44:58;;;;;;;;;6.00;6.00;;;;;23.33;41.78;101596.44;4962930;28;45466;-58
2022/07/30 04:47:24;;;;;;;;;6.50;4.50;;;;;23.27;42.19;101588.97;4962581;28;45711;-57
2022/07/30 04:49:51;;;;;;;;;5.00;4.75;;;;;23.24;42.18;101587.44;4962683;28;45370;-57
2022/07/30 04:52:18;;;;;;;;;3.00;3.00;;;;;23.23;41.97;101584.91;4962741;28;45235;-58
2022/07/30 04:55:01;;;;;;;;;6.00;6.00;;;;;23.22;42.22;101583.19;4962644;28;45346;-58
2022/07/30 04:57:29;;;;;;;;;5.50;5.50;;;;;23.22;42.19;101591.25;4962438;28;45223;-57
2022/07/30 04:59:55;;;;;;;;;4.00;3.25;;;;;23.16;42.01;101595.41;4962626;28;45529;-57
2022/07/30 05:02:22;;;;;;;;;6.00;6.00;;;;;23.13;42.36;101591.19;4962368;28;45365;-57
2022/07/30 05:04:49;;;;;;;;;6.50;5.00;;;;;23.15;41.96;101598.25;4962349;28;45242;-57
2022/07/30 05:07:16;;;;;;;;;6.25;6.25;;;;;23.16;42.18;101590.03;4962373;28;45319;-59
2022/07/30 05:09:42;;;;;;;;;4.50;4.50;;;;;23.17;42.00;101591.72;4962591;28;45385;-59
2022/07/30 05:12:08;;;;;;;;;7.25;6.00;;;;;23.18;42.12;101593.41;4962685;28;45242;-59
2022/07/30 05:14:34;;;;;;;;;5.75;5.00;;;;;23.15;42.06;101590.19;4962411;28;45236;-58
2022/07/30 05:16:59;;;;;;;;;5.75;5.25;;;;;23.10;42.24;101596.88;4961093;28;45349;-58
2022/07/30 05:19:25;;;;;;;;;6.50;4.25;;;;;23.09;42.17;101608.63;4961790;28;45506;-58
2022/07/30 05:21:50;;;;;;;;;8.00;5.00;;;;;23.11;42.36;101605.78;4962194;28;45362;-58
2022/07/30 05:24:16;;;;;;;;;4.25;4.25;;;;;23.12;42.31;101605.63;4962304;28;45512;-58
2022/07/30 05:26:42;;;;;;;;;5.00;4.00;;;;;23.12;42.28;101602.94;4961990;28;46556;-59
2022/07/30 05:29:08;;;;;;;;;5.25;5.25;;;;;23.16;42.52;101618.78;4962228;28;45467;-59
2022/07/30 05:31:33;;;;;;;;;5.00;4.00;;;;;23.15;42.40;101615.25;4962054;28;45340;-59
2022/07/30 05:33:59;;;;;;;;;6.00;5.00;;;;;23.18;42.05;101608.69;4961880;28;45366;-59
2022/07/30 05:36:25;;;;;;;;;7.75;4.00;;;;;23.20;42.34;101617.44;4962087;28;45249;-59
2022/07/30 05:38:50;;;;;;;;;6.25;6.00;;;;;23.18;42.31;101609.53;4944565;28;45319;-59
2022/07/30 05:41:16;;;;;;;;;9.25;5.50;;;;;23.22;42.12;101621.66;4961956;28;45174;-59
2022/07/30 05:43:41;;;;;;;;;3.75;3.75;;;;;23.27;42.12;101611.31;4962241;28;45611;-59
2022/07/30 05:46:07;;;;;;;;;6.00;5.00;;;;;23.33;42.37;101616.09;4961798;28;46029;-59
2022/07/30 05:48:34;;;;;;;;;4.00;4.00;;;;;23.40;41.89;101619.03;4960743;28;45192;-59
2022/07/30 05:51:03;;;;;;;;;4.75;4.75;;;;;23.46;42.18;101622.91;4962024;28;45395;-58
2022/07/30 05:53:28;;;;;;;;;6.00;5.50;;;;;23.52;42.04;101622.31;4962040;28;45615;-58
2022/07/30 05:55:54;;;;;;;;;5.75;5.00;;;;;23.58;42.25;101621.72;4961663;28;45755;-58
2022/07/30 05:58:19;;;;;;;;;6.00;4.25;;;;;23.64;42.20;101619.28;4961750;28;45369;-59
2022/07/30 06:00:45;;;;;;;;;7.00;5.00;;;;;23.71;41.73;101615.97;4961934;28;45303;-59
2022/07/30 06:03:11;;;;;;;;;5.75;4.00;;;;;23.77;42.09;101618.88;4961793;28;45592;-59
2022/07/30 06:05:36;;;;;;;;;9.50;6.00;;;;;23.83;41.85;101623.63;4961280;28;46173;-59
2022/07/30 06:08:02;;;;;;;;;6.00;4.00;;;;;23.90;41.41;101622.00;4961641;28;45244;-59
2022/07/30 06:10:27;;;;;;;;;7.50;5.25;;;;;23.94;41.28;101620.72;4961685;28;45280;-59
2022/07/30 06:12:53;;;;;;;;;6.00;6.00;;;;;24.01;41.71;101625.44;4961849;28;45244;-58
2022/07/30 06:15:19;;;;;;;;;6.25;6.25;;;;;24.07;41.14;101619.44;4961442;28;46015;-59
2022/07/30 06:17:46;;;;;;;;;5.50;5.00;;;;;24.13;40.97;101626.91;4961406;28;45426;-59
2022/07/30 06:20:13;;;;;;;;;5.75;5.00;;;;;24.15;41.42;101632.97;4961497;28;45409;-59
2022/07/30 06:22:39;;;;;;;;;4.50;4.50;;;;;24.17;40.81;101633.63;4961541;28;45528;-58
2022/07/30 06:25:06;;;;;;;;;6.75;5.75;;;;;24.19;40.94;101629.81;4961548;28;45431;-58
2022/07/30 06:27:32;;;;;;;;;7.50;5.75;;;;;24.24;40.96;101632.00;4961410;28;45311;-59
2022/07/30 06:29:59;;;;;;;;;5.50;5.00;;;;;24.33;40.88;101630.22;4961576;28;45321;-59
2022/07/30 06:32:25;;;;;;;;;5.25;5.25;;;;;24.40;41.28;101632.13;4961471;28;45433;-59
2022/07/30 06:34:50;;;;;;;;;5.00;5.00;;;;;24.46;40.95;101636.88;4963456;28;45402;-59
2022/07/30 06:37:16;;;;;;;;;6.00;5.50;;;;;24.54;40.70;101644.19;4959864;28;45315;-59
2022/07/30 06:39:41;;;;;;;;;6.25;5.25;;;;;24.62;40.61;101652.31;4952149;28;45442;-59
2022/07/30 06:42:07;;;;;;;;;6.00;5.25;;;;;24.69;40.64;101656.03;4964865;28;45388;-59
2022/07/30 06:44:32;;;;;;;;;3.00;3.00;;;;;24.76;40.69;101654.41;4964913;28;45337;-59
2022/07/30 06:46:58;;;;;;;;;5.25;5.25;;;;;24.77;40.81;101647.16;4964418;28;45334;-59
2022/07/30 06:49:23;;;;;;;;;9.75;6.00;;;;;24.82;40.27;101658.31;4964586;28;45295;-58
2022/07/30 06:51:49;;;;;;;;;6.50;5.00;;;;;24.85;40.77;101649.88;4964834;28;45302;-59
2022/07/30 06:54:14;;;;;;;;;5.75;5.75;;;;;24.88;40.78;101656.78;4963197;28;45329;-60
2022/07/30 06:56:40;;;;;;;;;7.25;4.50;;;;;24.90;40.12;101649.41;4964671;28;45262;-60
2022/07/30 06:59:05;;;;;;;;;6.75;6.00;;;;;24.94;40.29;101658.84;4964554;28;45479;-60
2022/07/30 07:01:31;;;;;;;;;8.00;4.75;;;;;24.94;40.41;101657.00;4964541;28;45295;-59
2022/07/30 07:03:56;;;;;;;;;6.25;5.50;;;;;24.95;40.11;101666.75;4964127;28;46053;-59
2022/07/30 07:06:22;;;;;;;;;6.75;5.75;;;;;24.98;40.52;101652.16;4964365;28;45227;-59
2022/07/30 07:08:47;;;;;;;;;4.00;3.75;;;;;24.98;40.09;101658.38;4964383;28;45225;-59
2022/07/30 07:11:12;;;;;;;;;6.25;6.00;;;;;24.99;40.33;101668.16;4964525;28;45294;-59
2022/07/30 07:13:38;;;;;;;;;8.75;6.00;;;;;25.05;40.64;101674.78;4964059;28;46406;-59
2022/07/30 07:16:04;;;;;;;;;5.75;5.00;;;;;25.08;40.47;101668.22;4964119;28;45249;-59
2022/07/30 07:18:29;;;;;;;;;6.50;5.25;;;;;25.11;39.90;101668.72;4962721;28;45456;-58
2022/07/30 07:20:55;;;;;;;;;4.75;4.75;;;;;25.12;40.13;101667.72;4964293;28;45464;-58
2022/07/30 07:23:20;;;;;;;;;6.00;6.00;;;;;25.11;39.91;101662.47;4964004;28;45967;-59
2022/07/30 07:25:46;;;;;;;;;5.00;5.00;;;;;25.11;40.37;101678.66;4964058;28;45292;-59
2022/07/30 07:28:11;;;;;;;;;6.50;6.00;;;;;25.12;40.45;101673.13;4964126;28;45340;-59
2022/07/30 07:30:37;;;;;;;;;8.25;7.75;;;;;25.16;40.56;101668.25;4964123;28;45463;-59
2022/07/30 07:33:03;;;;;;;;;8.50;6.25;;;;;25.12;40.29;101659.66;4963625;28;45354;-60
2022/07/30 07:35:28;;;;;;;;;11.00;7.00;;;;;25.22;40.49;101671.13;4963636;28;45321;-58
2022/07/30 07:37:53;;;;;;;;;7.75;7.75;;;;;25.23;39.95;101666.56;4953936;28;45352;-59
2022/07/30 07:40:19;;;;;;;;;6.00;6.00;;;;;25.28;40.39;101665.09;4956325;28;45270;-57
2022/07/30 07:42:44;;;;;;;;;8.25;6.00;;;;;25.30;39.90;101660.38;4963424;28;45332;-60
2022/07/30 07:45:10;;;;;;;;;8.00;6.25;;;;;25.34;39.93;101659.00;4962880;28;45383;-59
2022/07/30 07:47:46;;;;;;;;;10.00;7.50;;;;;25.38;40.16;101664.09;4963620;28;45385;-58
2022/07/30 07:50:17;;;;;;;;;6.75;5.25;;;;;25.39;40.25;101655.81;4963632;28;45568;-59
2022/07/30 07:52:43;;;;;;;;;6.50;6.25;;;;;25.39;40.33;101661.22;4963416;28;45589;-59
2022/07/30 07:55:09;;;;;;;;;6.00;6.00;;;;;25.40;40.26;101664.75;4963349;28;45313;-58
2022/07/30 07:57:42;;;;;;;;;7.00;5.50;;;;;25.41;39.89;101663.75;4963662;28;45396;-59
2022/07/30 08:00:10;;;;;;;;;10.50;7.25;;;;;25.42;40.11;101666.28;4963508;28;45286;-58
2022/07/30 08:02:36;;;;;;;;;9.25;7.25;;;;;25.46;39.59;101664.94;4963263;28;45439;-59
2022/07/30 08:05:04;;;;;;;;;7.25;6.00;;;;;25.52;39.80;101669.69;4963039;28;45378;-59
2022/07/30 08:07:29;;;;;;;;;9.75;5.00;;;;;25.58;39.78;101654.66;4963612;28;45220;-58
2022/07/30 08:09:55;;;;;;;;;6.00;6.00;;;;;25.59;39.95;101659.06;4963606;28;45480;-59
2022/07/30 08:12:20;;;;;;;;;9.25;6.25;;;;;25.62;39.72;101661.44;4963259;28;46396;-59
2022/07/30 08:14:46;;;;;;;;;5.00;5.00;;;;;25.68;39.70;101660.78;4963081;28;45350;-59
2022/07/30 08:17:11;;;;;;;;;10.00;6.75;;;;;25.73;39.47;101662.97;4963417;28;45447;-59
2022/07/30 08:19:37;;;;;;;;;8.00;6.00;;;;;25.83;39.92;101656.44;4962826;28;45346;-59
2022/07/30 08:22:02;;;;;;;;;10.50;7.75;;;;;25.92;39.65;101659.97;4963295;28;46425;-59
2022/07/30 08:24:27;;;;;;;;;7.00;5.50;;;;;25.97;39.46;101657.59;4963130;28;45316;-59
2022/07/30 08:26:53;;;;;;;;;5.75;5.75;;;;;25.99;39.43;101662.81;4963395;28;45686;-59
2022/07/30 08:29:18;;;;;;;;;7.25;6.75;;;;;26.01;39.50;101660.81;4963077;28;45408;-61
2022/07/30 08:31:44;;;;;;;;;6.00;6.00;;;;;26.04;39.07;101664.00;4962661;28;45474;-59
2022/07/30 08:34:09;;;;;;;;;5.50;5.50;;;;;26.04;38.62;101671.25;4962622;28;45310;-59
2022/07/30 08:36:35;;;;;;;;;5.75;4.75;;;;;26.03;38.88;101673.13;4963153;28;45577;-59
2022/07/30 08:39:00;;;;;;;;;9.75;6.25;;;;;26.04;38.74;101680.19;4944902;28;45152;-59
2022/07/30 08:41:27;;;;;;;;;7.25;7.25;;;;;26.08;38.71;101670.78;4961455;28;47902;-59
2022/07/30 08:43:54;;;;;;;;;9.50;8.25;;;;;26.11;38.78;101672.28;4962825;28;45253;-59
2022/07/30 08:46:23;;;;;;;;;6.50;6.50;;;;;26.13;38.68;101670.25;4962629;28;45496;-59
2022/07/30 08:48:51;;;;;;;;;7.75;5.75;;;;;26.19;38.74;101666.03;4962491;28;45405;-59
2022/07/30 08:51:18;;;;;;;;;5.75;5.75;;;;;26.24;38.52;101671.78;4961286;28;46857;-59
2022/07/30 08:53:44;;;;;;;;;7.75;5.50;;;;;26.23;38.34;101670.94;4962861;28;45322;-59
2022/07/30 08:56:10;;;;;;;;;7.00;7.00;;;;;26.24;37.82;101674.47;4962325;28;45383;-59
2022/07/30 08:58:36;;;;;;;;;7.00;6.75;;;;;26.29;38.01;101667.53;4962258;28;45514;-59
2022/07/30 09:01:03;;;;;;;;;6.00;5.75;;;;;26.32;38.08;101669.91;4962649;28;45419;-59
2022/07/30 09:03:28;;;;;;;;;8.00;6.00;;;;;26.37;37.96;101675.59;4962351;28;45424;-59
2022/07/30 09:05:54;;;;;;;;;7.25;6.75;;;;;26.42;38.01;101665.16;4962668;28;45309;-59
2022/07/30 09:08:19;;;;;;;;;6.00;4.00;;;;;26.48;38.01;101665.50;4962502;28;45531;-58
2022/07/30 09:10:47;;;;;;;;;6.50;5.50;;;;;26.56;37.94;101671.75;4962569;28;45369;-59
2022/07/30 09:13:24;;;;;;;;;8.50;6.25;;;;;26.64;37.61;101671.72;4962366;28;45326;-58
2022/07/30 09:15:50;;;;;;;;;9.00;6.75;;;;;26.71;37.65;101670.00;4962510;28;45663;-58
2022/07/30 09:18:33;;;;;;;;;6.00;6.00;;;;;26.82;37.80;101676.03;4962133;28;45362;-59
2022/07/30 09:21:00;;;;;;;;;5.50;5.50;;;;;26.85;37.29;101672.97;4962397;28;45287;-59
2022/07/30 09:23:26;;;;;;;;;6.25;5.25;;;;;26.84;36.99;101674.00;4962037;28;45408;-59
2022/07/30 09:25:51;;;;;;;;;9.25;8.25;;;;;26.82;37.21;101676.88;4962223;28;45444;-60
2022/07/30 09:28:27;;;;;;;;;8.50;6.50;;;;;26.85;36.97;101676.53;4962437;28;45298;-59
2022/07/30 09:30:54;;;;;;;;;6.00;5.25;;;;;26.88;37.31;101678.91;4961889;28;46228;-59
2022/07/30 09:33:37;;;;;;;;;7.25;5.00;;;;;26.94;37.10;101678.19;4962142;28;45412;-59
2022/07/30 09:36:07;;;;;;;;;6.50;5.00;;;;;27.04;37.07;101680.72;4948979;28;45318;-59
2022/07/30 09:38:51;;;;;;;;;7.00;6.00;;;;;27.13;36.81;101676.13;4947090;28;45232;-59
2022/07/30 09:41:31;;;;;;;;;5.00;4.75;;;;;27.21;36.31;101678.78;4949094;28;45398;-59
2022/07/30 09:44:01;;;;;;;;;4.75;4.75;;;;;27.26;36.12;101676.41;4961469;28;45345;-59
2022/07/30 09:46:49;;;;;;;;;6.75;4.75;;;;;27.35;36.39;101680.72;4961936;28;45259;-59
2022/07/30 09:49:21;;;;;;;;;8.00;5.50;;;;;27.43;36.24;101685.25;4961719;28;45451;-60
2022/07/30 09:51:47;;;;;;;;;10.25;7.25;;;;;27.51;35.98;101683.34;4961716;28;45496;-59
2022/07/30 09:54:13;;;;;;;;;11.25;8.00;;;;;27.60;36.22;101681.41;4961680;28;45177;-59
2022/07/30 09:56:38;;;;;;;;;4.25;3.25;;;;;27.67;35.47;101681.59;4961958;28;45194;-60
2022/07/30 09:59:05;;;;;;;;;5.50;4.75;;;;;27.77;35.58;101674.06;4961838;28;45175;-59
2022/07/30 10:01:51;;;;;;;;;4.00;4.00;;;;;27.85;35.59;101679.41;4961431;28;46170;-59
2022/07/30 10:04:23;;;;;;;;;4.00;4.00;;;;;27.90;35.20;101684.28;4961464;28;45379;-60
2022/07/30 10:06:49;;;;;;;;;4.00;4.00;;;;;27.98;34.73;101686.94;4961704;28;45410;-59
2022/07/30 10:09:24;;;;;;;;;4.50;3.25;;;;;28.06;35.12;101681.44;4962744;28;45273;-60
2022/07/30 10:11:51;;;;;;;;;9.00;7.25;;;;;28.16;34.78;101678.47;4965061;28;45294;-59
2022/07/30 10:14:17;;;;;;;;;6.00;4.75;;;;;28.26;34.54;101671.75;4964768;28;45422;-59
2022/07/30 10:16:42;;;;;;;;;6.00;4.00;;;;;28.34;34.13;101676.28;4965020;28;45428;-60
2022/07/30 10:19:08;;;;;;;;;20.25;19.75;;;;;28.42;33.79;101678.06;4964689;28;45317;-60
2022/07/30 10:21:34;;;;;;;;;13.75;11.75;;;;;28.44;34.19;101668.75;4964798;28;45390;-60
2022/07/30 10:24:00;;;;;;;;;4.00;3.25;;;;;28.45;34.01;101677.72;4965081;28;45321;-60
2022/07/30 10:26:26;;;;;;;;;23.00;17.25;;;;;28.49;34.06;101676.31;4964929;28;45252;-60
2022/07/30 10:28:52;;;;;;;;;5.50;4.00;;;;;28.57;33.33;101670.78;4965244;28;45231;-60
2022/07/30 10:31:18;;;;;;;;;5.50;4.25;;;;;28.64;33.62;101666.31;4964512;28;46353;-60
2022/07/30 10:33:43;;;;;;;;;6.25;4.50;;;;;28.71;33.10;101672.66;4964836;28;45164;-60
2022/07/30 10:36:10;;;;;;;;;4.00;3.00;;;;;28.73;33.18;101667.06;4964646;28;45223;-60
2022/07/30 10:38:39;;;;;;;;;4.50;4.50;;;;;28.74;33.57;101657.88;4949221;28;45476;-60
2022/07/30 10:41:10;;;;;;;;;5.00;5.00;;;;;28.79;32.93;101655.47;4962509;28;46179;-60
2022/07/30 10:44:10;;;;;;;;;3.75;3.75;;;;;28.85;32.81;101652.84;4964649;28;45333;-60
2022/07/30 10:47:05;;;;;;;;;3.75;3.75;;;;;28.92;33.26;101648.38;4964634;28;45277;-60
2022/07/30 10:49:31;;;;;;;;;8.75;4.00;;;;;28.97;32.90;101658.63;4964513;28;45560;-60
2022/07/30 10:51:57;;;;;;;;;5.75;4.25;;;;;28.98;33.22;101660.31;4964448;28;46218;-60
2022/07/30 10:54:44;;;;;;;;;5.50;4.75;;;;;29.02;33.16;101655.38;4963025;28;45253;-60
2022/07/30 10:57:15;;;;;;;;;5.25;3.75;;;;;29.03;32.71;101647.03;4964455;28;45240;-60
2022/07/30 10:59:57;;;;;;;;;7.50;7.25;;;;;29.05;32.48;101655.81;4964412;28;45475;-59
2022/07/30 11:02:27;;;;;;;;;12.50;10.25;;;;;29.08;32.95;101650.03;4964201;28;45450;-60
2022/07/30 11:05:18;;;;;;;;;15.00;14.00;;;;;29.14;32.80;101653.84;4963903;28;45266;-59
2022/07/30 11:07:46;;;;;;;;;10.75;10.00;;;;;29.23;32.66;101651.84;4964450;28;45477;-59
2022/07/30 11:10:34;;;;;;;;;5.50;5.50;;;;;29.28;32.96;101652.97;4964275;28;45186;-60
2022/07/30 11:12:59;;;;;;;;;5.00;5.00;;;;;29.30;32.25;101642.75;4963815;28;45334;-59
2022/07/30 11:15:55;;;;;;;;;7.75;5.00;;;;;29.33;32.57;101644.25;4962531;28;45274;-59
2022/07/30 11:18:23;;;;;;;;;5.00;4.25;;;;;29.38;32.17;101641.78;4963650;28;45420;-59
2022/07/30 11:21:17;;;;;;;;;4.50;4.50;;;;;29.44;32.80;101641.03;4963898;28;45318;-59
2022/07/30 11:23:45;;;;;;;;;3.50;3.50;;;;;29.45;32.27;101643.53;4963804;28;46103;-59
2022/07/30 11:26:29;;;;;;;;;1.25;1.25;;;;;29.48;32.30;101637.75;4963766;28;45289;-59
2022/07/30 11:28:55;;;;;;;;;4.75;4.25;;;;;29.51;32.57;101630.25;4964049;28;45302;-59
2022/07/30 11:31:31;;;;;;;;;6.50;5.75;;;;;29.57;32.19;101635.75;4963927;28;45603;-59
2022/07/30 11:34:18;;;;;;;;;3.50;3.00;;;;;29.60;32.23;101632.66;4963625;28;45451;-59